Thunder radar more information blitzortung!


Radar de pluja more information rain snow radar


Visita la nostra xarxa de llocs de meteo:

Template documentation
and downloads

And another site



No particular awareness of the weather is required.    There are no Weather-warnings

Pagina Historial Weather Underground text

Diari Resum Agost 27, 2017 Unitats:  Tant    Imperial   Mètric
« Previous Dia
SegĂźent Dia »
Diari Setmana Mensual Anual Personalitzada
  Maxima: Minima: Media:
Temperatura: 89.2 °F /  31.8 °C 69.8 °F /  21.0 °C 80.4 °F /  26.9 °C
Punt de rosada: 70 °F /  21.1 °C 62.2 °F /  16.8 °C 67.1 °F /  19.5 °C
Humitat: 86 % 49 % 65 %
Wind Speed: 13.8 mph /  22.2 km/h - 4.7 mph /  7.5 km/h
RĂ fegues de vent: 13.8 mph /  22.2 km/h - -
Vent:- - SSE
Pression baro: 30 in /  1015.8 hPa 29.9 in /  1012.8 hPa -
Precipitacions: 0 in /  0.0 mm    
Historical Graphs
 
 
Dades de taula per Agost 27, 2017
Temps Temperatura Punt de rosada Pression baro Vent Wind Speed RĂ fegues de vent Humitat Rainfall Rate (Hourly)
00:03 75.6 °F /  24.2 °C 67.1 °F /  19.5 °C 30 in /  1014.8 hPa East 2.3 mph /  3.7 km/h 2.3 mph /  3.7 km/h 75 % 0 in /  0.0 mm
00:05 72.3 °F /  22.4 °C 66.2 °F /  19.0 °C 29.9 in /  1013.8 hPa Calm   2 mph /  3.2 km/h 81 % 0 in /  0.0 mm
00:08 75.6 °F /  24.2 °C 67.1 °F /  19.5 °C 30 in /  1014.8 hPa East 2.6 mph /  4.2 km/h 2.6 mph /  4.2 km/h 75 % 0 in /  0.0 mm
00:15 72.3 °F /  22.4 °C 66.2 °F /  19.0 °C 29.9 in /  1013.8 hPa Calm     81 % 0 in /  0.0 mm
00:25 72.3 °F /  22.4 °C 66.2 °F /  19.0 °C 29.9 in /  1013.8 hPa Calm   1 mph /  1.6 km/h 81 % 0 in /  0.0 mm
00:35 72.3 °F /  22.4 °C 66.6 °F /  19.2 °C 30 in /  1014.8 hPa Calm     82 % 0 in /  0.0 mm
00:45 72.3 °F /  22.4 °C 66.6 °F /  19.2 °C 30 in /  1014.8 hPa WNW 1 mph /  1.6 km/h 1 mph /  1.6 km/h 82 % 0 in /  0.0 mm
00:55 72.3 °F /  22.4 °C 66.6 °F /  19.2 °C 30 in /  1014.8 hPa NNW 1 mph /  1.6 km/h 2 mph /  3.2 km/h 82 % 0 in /  0.0 mm
01:05 72.1 °F /  22.3 °C 66 °F /  18.9 °C 29.9 in /  1013.8 hPa NNE 1 mph /  1.6 km/h 3 mph /  4.8 km/h 81 % 0 in /  0.0 mm
01:15 71.6 °F /  22.0 °C 65.5 °F /  18.6 °C 29.9 in /  1013.8 hPa Calm   2 mph /  3.2 km/h 81 % 0 in /  0.0 mm
01:25 71.2 °F /  21.8 °C 65.5 °F /  18.6 °C 29.9 in /  1013.8 hPa Calm     82 % 0 in /  0.0 mm
01:35 71.2 °F /  21.8 °C 65.5 °F /  18.6 °C 30 in /  1014.8 hPa Calm     82 % 0 in /  0.0 mm
01:45 71.1 °F /  21.7 °C 65.3 °F /  18.5 °C 30 in /  1014.8 hPa SW 1 mph /  1.6 km/h 2 mph /  3.2 km/h 82 % 0 in /  0.0 mm
01:55 71.1 °F /  21.7 °C 65.7 °F /  18.7 °C 30 in /  1014.8 hPa Calm   1 mph /  1.6 km/h 83 % 0 in /  0.0 mm
02:05 70.9 °F /  21.6 °C 65.8 °F /  18.8 °C 29.9 in /  1013.8 hPa Calm     84 % 0 in /  0.0 mm
02:15 70.9 °F /  21.6 °C 65.5 °F /  18.6 °C 29.9 in /  1013.8 hPa West 1 mph /  1.6 km/h 1 mph /  1.6 km/h 83 % 0 in /  0.0 mm
02:25 70.9 °F /  21.6 °C 65.8 °F /  18.8 °C 29.9 in /  1013.8 hPa Calm   2 mph /  3.2 km/h 84 % 0 in /  0.0 mm
02:35 70.9 °F /  21.6 °C 65.8 °F /  18.8 °C 30 in /  1014.8 hPa NW 1 mph /  1.6 km/h   84 % 0 in /  0.0 mm
02:45 70.2 °F /  21.2 °C 64.8 °F /  18.2 °C 30 in /  1014.8 hPa NNW 1 mph /  1.6 km/h 2 mph /  3.2 km/h 83 % 0 in /  0.0 mm
02:55 70.2 °F /  21.2 °C 65.1 °F /  18.4 °C 30 in /  1014.8 hPa East 1 mph /  1.6 km/h 2 mph /  3.2 km/h 84 % 0 in /  0.0 mm
03:05 70 °F /  21.1 °C 64.9 °F /  18.3 °C 30 in /  1014.8 hPa Calm     84 % 0 in /  0.0 mm
03:15 70 °F /  21.1 °C 65.3 °F /  18.5 °C 30 in /  1014.8 hPa ENE 1 mph /  1.6 km/h 2 mph /  3.2 km/h 85 % 0 in /  0.0 mm
03:25 70 °F /  21.1 °C 65.3 °F /  18.5 °C 30 in /  1014.8 hPa ENE 1 mph /  1.6 km/h 2 mph /  3.2 km/h 85 % 0 in /  0.0 mm
03:35 69.8 °F /  21.0 °C 65.1 °F /  18.4 °C 29.9 in /  1013.8 hPa Calm   3 mph /  4.8 km/h 85 % 0 in /  0.0 mm
03:45 70 °F /  21.1 °C 65.3 °F /  18.5 °C 29.9 in /  1013.8 hPa Calm   2 mph /  3.2 km/h 85 % 0 in /  0.0 mm
03:55 70 °F /  21.1 °C 65.3 °F /  18.5 °C 29.9 in /  1013.8 hPa Calm   2 mph /  3.2 km/h 85 % 0 in /  0.0 mm
04:05 70.5 °F /  21.4 °C 65.8 °F /  18.8 °C 29.9 in /  1013.8 hPa Calm   2 mph /  3.2 km/h 85 % 0 in /  0.0 mm
04:15 71.4 °F /  21.9 °C 66.9 °F /  19.4 °C 30 in /  1014.8 hPa Calm   1 mph /  1.6 km/h 86 % 0 in /  0.0 mm
04:25 71.6 °F /  22.0 °C 66.7 °F /  19.3 °C 30 in /  1014.8 hPa NE 1 mph /  1.6 km/h 3 mph /  4.8 km/h 85 % 0 in /  0.0 mm
04:35 71.6 °F /  22.0 °C 66.6 °F /  19.2 °C 30 in /  1014.8 hPa ENE 1 mph /  1.6 km/h 2 mph /  3.2 km/h 84 % 0 in /  0.0 mm
04:45 72 °F /  22.2 °C 66.9 °F /  19.4 °C 30 in /  1014.8 hPa NE 1 mph /  1.6 km/h 2 mph /  3.2 km/h 84 % 0 in /  0.0 mm
04:55 72 °F /  22.2 °C 66.6 °F /  19.2 °C 30 in /  1014.8 hPa NE 3 mph /  4.8 km/h 3 mph /  4.8 km/h 83 % 0 in /  0.0 mm
05:05 72.5 °F /  22.5 °C 66.9 °F /  19.4 °C 30 in /  1014.8 hPa NE 2 mph /  3.2 km/h 3 mph /  4.8 km/h 83 % 0 in /  0.0 mm
10:09 76.1 °F /  24.5 °C 68 °F /  20.0 °C 30 in /  1014.8 hPa East 5.8 mph /  9.3 km/h 5.8 mph /  9.3 km/h 76 % 0 in /  0.0 mm
10:12 76.3 °F /  24.6 °C 68.2 °F /  20.1 °C 30 in /  1015.8 hPa East 2.4 mph /  3.9 km/h 2.9 mph /  4.7 km/h 76 % 0 in /  0.0 mm
10:17 76.5 °F /  24.7 °C 68.4 °F /  20.2 °C 30 in /  1015.8 hPa East 4.6 mph /  7.4 km/h 4.6 mph /  7.4 km/h 76 % 0 in /  0.0 mm
10:22 76.8 °F /  24.9 °C 68.7 °F /  20.4 °C 30 in /  1015.8 hPa NNE 4.6 mph /  7.4 km/h 4.6 mph /  7.4 km/h 76 % 0 in /  0.0 mm
10:27 77 °F /  25.0 °C 68.5 °F /  20.3 °C 30 in /  1015.8 hPa NE 4.6 mph /  7.4 km/h 4.6 mph /  7.4 km/h 75 % 0 in /  0.0 mm
10:32 77.5 °F /  25.3 °C 69.1 °F /  20.6 °C 30 in /  1015.8 hPa NNE 3.5 mph /  5.6 km/h 3.5 mph /  5.6 km/h 75 % 0 in /  0.0 mm
10:37 78.3 °F /  25.7 °C 69.3 °F /  20.7 °C 30 in /  1015.8 hPa ESE 5.8 mph /  9.3 km/h 5.8 mph /  9.3 km/h 74 % 0 in /  0.0 mm
10:42 78.3 °F /  25.7 °C 68.9 °F /  20.5 °C 30 in /  1015.8 hPa East 5.8 mph /  9.3 km/h 5.8 mph /  9.3 km/h 73 % 0 in /  0.0 mm
10:47 78.3 °F /  25.7 °C 68.9 °F /  20.5 °C 30 in /  1015.8 hPa ENE 8.1 mph /  13.0 km/h 8.1 mph /  13.0 km/h 73 % 0 in /  0.0 mm
10:52 78.6 °F /  25.9 °C 68.7 °F /  20.4 °C 30 in /  1015.8 hPa ESE 6.9 mph /  11.1 km/h 6.9 mph /  11.1 km/h 72 % 0 in /  0.0 mm
10:57 79.7 °F /  26.5 °C 70 °F /  21.1 °C 30 in /  1015.8 hPa ESE 4.9 mph /  7.9 km/h 4.9 mph /  7.9 km/h 72 % 0 in /  0.0 mm
11:02 80.6 °F /  27.0 °C 70 °F /  21.1 °C 30 in /  1015.8 hPa East 5.8 mph /  9.3 km/h 5.8 mph /  9.3 km/h 70 % 0 in /  0.0 mm
11:07 80.8 °F /  27.1 °C 69.6 °F /  20.9 °C 30 in /  1015.8 hPa ESE 4.6 mph /  7.4 km/h 4.6 mph /  7.4 km/h 69 % 0 in /  0.0 mm
11:12 81.3 °F /  27.4 °C 69.3 °F /  20.7 °C 30 in /  1015.8 hPa SE 4.9 mph /  7.9 km/h 4.9 mph /  7.9 km/h 67 % 0 in /  0.0 mm
11:17 80.8 °F /  27.1 °C 68.7 °F /  20.4 °C 30 in /  1015.8 hPa South 8.1 mph /  13.0 km/h 8.1 mph /  13.0 km/h 67 % 0 in /  0.0 mm
11:22 82 °F /  27.8 °C 70 °F /  21.1 °C 30 in /  1015.8 hPa ENE 4.6 mph /  7.4 km/h 4.6 mph /  7.4 km/h 67 % 0 in /  0.0 mm
11:27 81.3 °F /  27.4 °C 69.3 °F /  20.7 °C 30 in /  1015.8 hPa ESE 3.5 mph /  5.6 km/h 3.5 mph /  5.6 km/h 67 % 0 in /  0.0 mm
11:32 81.9 °F /  27.7 °C 69.4 °F /  20.8 °C 30 in /  1015.8 hPa ESE 8.1 mph /  13.0 km/h 8.1 mph /  13.0 km/h 66 % 0 in /  0.0 mm
11:37 81.5 °F /  27.5 °C 69.1 °F /  20.6 °C 30 in /  1015.8 hPa East 6.2 mph /  10.0 km/h 6.2 mph /  10.0 km/h 66 % 0 in /  0.0 mm
11:42 81.9 °F /  27.7 °C 68.9 °F /  20.5 °C 30 in /  1015.8 hPa NE 5.8 mph /  9.3 km/h 5.8 mph /  9.3 km/h 65 % 0 in /  0.0 mm
11:47 81.7 °F /  27.6 °C 68.7 °F /  20.4 °C 30 in /  1015.8 hPa ENE 3.5 mph /  5.6 km/h 3.5 mph /  5.6 km/h 65 % 0 in /  0.0 mm
11:52 82.4 °F /  28.0 °C 69.1 °F /  20.6 °C 30 in /  1015.8 hPa East 5.8 mph /  9.3 km/h 5.8 mph /  9.3 km/h 64 % 0 in /  0.0 mm
11:57 82.2 °F /  27.9 °C 69.3 °F /  20.7 °C 30 in /  1015.8 hPa ESE 5.8 mph /  9.3 km/h 5.8 mph /  9.3 km/h 65 % 0 in /  0.0 mm
12:02 82.9 °F /  28.3 °C 69.4 °F /  20.8 °C 30 in /  1015.8 hPa ENE 4.6 mph /  7.4 km/h 4.6 mph /  7.4 km/h 64 % 0 in /  0.0 mm
12:07 83.3 °F /  28.5 °C 69.8 °F /  21.0 °C 30 in /  1015.8 hPa NE 6.2 mph /  10.0 km/h 6.2 mph /  10.0 km/h 64 % 0 in /  0.0 mm
12:12 83.5 °F /  28.6 °C 69.6 °F /  20.9 °C 30 in /  1015.8 hPa ESE 5.8 mph /  9.3 km/h 5.8 mph /  9.3 km/h 63 % 0 in /  0.0 mm
12:22 84.2 °F /  29.0 °C 69.8 °F /  21.0 °C 30 in /  1015.8 hPa NE 5.8 mph /  9.3 km/h 5.9 mph /  9.5 km/h 62 % 0 in /  0.0 mm
12:27 83.7 °F /  28.7 °C 69.6 °F /  20.9 °C 30 in /  1014.8 hPa ENE 5.8 mph /  9.3 km/h 5.8 mph /  9.3 km/h 63 % 0 in /  0.0 mm
12:32 83.5 °F /  28.6 °C 69.1 °F /  20.6 °C 30 in /  1014.8 hPa SE 4.6 mph /  7.4 km/h 4.6 mph /  7.4 km/h 62 % 0 in /  0.0 mm
12:37 85.1 °F /  29.5 °C 69.6 °F /  20.9 °C 30 in /  1014.8 hPa East 6.9 mph /  11.1 km/h 6.9 mph /  11.1 km/h 60 % 0 in /  0.0 mm
12:42 84 °F /  28.9 °C 69.1 °F /  20.6 °C 30 in /  1014.8 hPa East 7.1 mph /  11.4 km/h 7.1 mph /  11.4 km/h 61 % 0 in /  0.0 mm
12:47 84 °F /  28.9 °C 69.1 °F /  20.6 °C 30 in /  1014.8 hPa East 8.1 mph /  13.0 km/h 8.1 mph /  13.0 km/h 61 % 0 in /  0.0 mm
12:52 84.6 °F /  29.2 °C 68.7 °F /  20.4 °C 30 in /  1014.8 hPa East 5.8 mph /  9.3 km/h 5.8 mph /  9.3 km/h 59 % 0 in /  0.0 mm
12:57 84.6 °F /  29.2 °C 69.1 °F /  20.6 °C 30 in /  1014.8 hPa ESE 4.6 mph /  7.4 km/h 4.6 mph /  7.4 km/h 60 % 0 in /  0.0 mm
13:02 84.2 °F /  29.0 °C 68.7 °F /  20.4 °C 30 in /  1014.8 hPa NE 5.8 mph /  9.3 km/h 5.8 mph /  9.3 km/h 60 % 0 in /  0.0 mm
13:07 84.2 °F /  29.0 °C 68.7 °F /  20.4 °C 30 in /  1014.8 hPa East 2.4 mph /  3.9 km/h 2.6 mph /  4.2 km/h 60 % 0 in /  0.0 mm
13:12 83.8 °F /  28.8 °C 69.1 °F /  20.6 °C 30 in /  1014.8 hPa ENE 5.8 mph /  9.3 km/h 5.8 mph /  9.3 km/h 61 % 0 in /  0.0 mm
13:17 83.7 °F /  28.7 °C 68.7 °F /  20.4 °C 30 in /  1014.8 hPa East 5.6 mph /  9.0 km/h 5.6 mph /  9.0 km/h 61 % 0 in /  0.0 mm
13:22 84.2 °F /  29.0 °C 68.7 °F /  20.4 °C 30 in /  1014.8 hPa ENE 3.5 mph /  5.6 km/h 3.5 mph /  5.6 km/h 60 % 0 in /  0.0 mm
13:27 85.5 °F /  29.7 °C 69.4 °F /  20.8 °C 30 in /  1014.8 hPa ESE 5.8 mph /  9.3 km/h 5.8 mph /  9.3 km/h 59 % 0 in /  0.0 mm
13:32 85.1 °F /  29.5 °C 68.7 °F /  20.4 °C 30 in /  1014.8 hPa ESE 10.4 mph /  16.7 km/h 10.4 mph /  16.7 km/h 58 % 0 in /  0.0 mm
13:37 85.1 °F /  29.5 °C 69.3 °F /  20.7 °C 30 in /  1014.8 hPa ENE 4.6 mph /  7.4 km/h 4.6 mph /  7.4 km/h 59 % 0 in /  0.0 mm
13:42 86 °F /  30.0 °C 69.4 °F /  20.8 °C 30 in /  1014.8 hPa ESE 3.3 mph /  5.3 km/h 3.3 mph /  5.3 km/h 58 % 0 in /  0.0 mm
13:47 86.2 °F /  30.1 °C 69.6 °F /  20.9 °C 30 in /  1014.8 hPa ESE 4.6 mph /  7.4 km/h 4.6 mph /  7.4 km/h 58 % 0 in /  0.0 mm
13:52 87.1 °F /  30.6 °C 70 °F /  21.1 °C 30 in /  1014.8 hPa NNE 5.8 mph /  9.3 km/h 5.8 mph /  9.3 km/h 57 % 0 in /  0.0 mm
13:57 87.1 °F /  30.6 °C 70 °F /  21.1 °C 30 in /  1014.8 hPa ENE 3.5 mph /  5.6 km/h 3.5 mph /  5.6 km/h 57 % 0 in /  0.0 mm
14:02 87.6 °F /  30.9 °C 70 °F /  21.1 °C 30 in /  1014.8 hPa ESE 3.5 mph /  5.6 km/h 3.5 mph /  5.6 km/h 56 % 0 in /  0.0 mm
14:07 88.7 °F /  31.5 °C 70 °F /  21.1 °C 30 in /  1014.8 hPa East 4.6 mph /  7.4 km/h 4.6 mph /  7.4 km/h 54 % 0 in /  0.0 mm
14:12 87.8 °F /  31.0 °C 68.5 °F /  20.3 °C 29.9 in /  1013.8 hPa ESE 3.5 mph /  5.6 km/h 3.5 mph /  5.6 km/h 53 % 0 in /  0.0 mm
14:17 87.6 °F /  30.9 °C 68.9 °F /  20.5 °C 29.9 in /  1013.8 hPa ESE 5.8 mph /  9.3 km/h 5.8 mph /  9.3 km/h 54 % 0 in /  0.0 mm
14:22 88.2 °F /  31.2 °C 69.4 °F /  20.8 °C 29.9 in /  1013.8 hPa ENE 4.6 mph /  7.4 km/h 4.6 mph /  7.4 km/h 54 % 0 in /  0.0 mm
14:27 87.1 °F /  30.6 °C 67.8 °F /  19.9 °C 29.9 in /  1013.8 hPa ESE 8.1 mph /  13.0 km/h 8.1 mph /  13.0 km/h 53 % 0 in /  0.0 mm
14:32 88.3 °F /  31.3 °C 69.1 °F /  20.6 °C 29.9 in /  1013.8 hPa ENE 3.5 mph /  5.6 km/h 3.5 mph /  5.6 km/h 53 % 0 in /  0.0 mm
14:37 88.3 °F /  31.3 °C 69.1 °F /  20.6 °C 29.9 in /  1013.8 hPa ESE 3.8 mph /  6.1 km/h 3.8 mph /  6.1 km/h 53 % 0 in /  0.0 mm
14:42 88.2 °F /  31.2 °C 67.8 °F /  19.9 °C 29.9 in /  1013.8 hPa ENE 6.9 mph /  11.1 km/h 6.9 mph /  11.1 km/h 51 % 0 in /  0.0 mm
14:47 88.2 °F /  31.2 °C 67.8 °F /  19.9 °C 29.9 in /  1013.8 hPa ESE 9.2 mph /  14.8 km/h 9.2 mph /  14.8 km/h 51 % 0 in /  0.0 mm
14:52 88.3 °F /  31.3 °C 68.5 °F /  20.3 °C 29.9 in /  1013.8 hPa ESE 8.1 mph /  13.0 km/h 8.1 mph /  13.0 km/h 52 % 0 in /  0.0 mm
14:57 88.3 °F /  31.3 °C 67.8 °F /  19.9 °C 29.9 in /  1013.8 hPa ENE 8.1 mph /  13.0 km/h 8.1 mph /  13.0 km/h 51 % 0 in /  0.0 mm
15:02 88.5 °F /  31.4 °C 67.5 °F /  19.7 °C 29.9 in /  1013.8 hPa SE 8.1 mph /  13.0 km/h 8.1 mph /  13.0 km/h 50 % 0 in /  0.0 mm
15:07 88.5 °F /  31.4 °C 67.5 °F /  19.7 °C 29.9 in /  1013.8 hPa ENE 8.1 mph /  13.0 km/h 8.1 mph /  13.0 km/h 50 % 0 in /  0.0 mm
15:12 88.9 °F /  31.6 °C 67.8 °F /  19.9 °C 29.9 in /  1013.8 hPa NE 8.1 mph /  13.0 km/h 8.1 mph /  13.0 km/h 50 % 0 in /  0.0 mm
15:17 88.7 °F /  31.5 °C 67.1 °F /  19.5 °C 29.9 in /  1013.8 hPa ESE 9.2 mph /  14.8 km/h 9.2 mph /  14.8 km/h 49 % 0 in /  0.0 mm
15:22 88.9 °F /  31.6 °C 67.8 °F /  19.9 °C 29.9 in /  1013.8 hPa ESE 8.1 mph /  13.0 km/h 8.1 mph /  13.0 km/h 50 % 0 in /  0.0 mm
15:27 88.9 °F /  31.6 °C 67.8 °F /  19.9 °C 29.9 in /  1013.8 hPa South 8.7 mph /  14.0 km/h 8.7 mph /  14.0 km/h 50 % 0 in /  0.0 mm
15:32 88.5 °F /  31.4 °C 66.9 °F /  19.4 °C 29.9 in /  1013.8 hPa East 8.1 mph /  13.0 km/h 8.1 mph /  13.0 km/h 49 % 0 in /  0.0 mm
15:37 89.2 °F /  31.8 °C 67.6 °F /  19.8 °C 29.9 in /  1013.8 hPa ESE 6.9 mph /  11.1 km/h 6.9 mph /  11.1 km/h 49 % 0 in /  0.0 mm
15:42 88.7 °F /  31.5 °C 67.1 °F /  19.5 °C 29.9 in /  1013.8 hPa SE 8.1 mph /  13.0 km/h 8.1 mph /  13.0 km/h 49 % 0 in /  0.0 mm
15:47 88.7 °F /  31.5 °C 67.1 °F /  19.5 °C 29.9 in /  1013.8 hPa ESE 8.1 mph /  13.0 km/h 8.1 mph /  13.0 km/h 49 % 0 in /  0.0 mm
15:52 89.1 °F /  31.7 °C 67.5 °F /  19.7 °C 29.9 in /  1013.8 hPa SE 6.2 mph /  10.0 km/h 6.2 mph /  10.0 km/h 49 % 0 in /  0.0 mm
15:57 88.7 °F /  31.5 °C 67.1 °F /  19.5 °C 29.9 in /  1013.8 hPa NE 8.1 mph /  13.0 km/h 8.1 mph /  13.0 km/h 49 % 0 in /  0.0 mm
16:02 88.7 °F /  31.5 °C 67.6 °F /  19.8 °C 29.9 in /  1013.8 hPa ESE 7.8 mph /  12.6 km/h 7.8 mph /  12.6 km/h 50 % 0 in /  0.0 mm
16:07 87.6 °F /  30.9 °C 67.3 °F /  19.6 °C 29.9 in /  1013.8 hPa East 8.1 mph /  13.0 km/h 8.1 mph /  13.0 km/h 51 % 0 in /  0.0 mm
16:12 87.4 °F /  30.8 °C 67.6 °F /  19.8 °C 29.9 in /  1012.8 hPa ENE 6.9 mph /  11.1 km/h 6.9 mph /  11.1 km/h 52 % 0 in /  0.0 mm
16:17 86.9 °F /  30.5 °C 67.3 °F /  19.6 °C 29.9 in /  1012.8 hPa ENE 10.5 mph /  16.9 km/h 10.5 mph /  16.9 km/h 52 % 0 in /  0.0 mm
16:22 86.2 °F /  30.1 °C 66.9 °F /  19.4 °C 29.9 in /  1012.8 hPa ESE 9.2 mph /  14.8 km/h 9.2 mph /  14.8 km/h 53 % 0 in /  0.0 mm
16:27 85.6 °F /  29.8 °C 67.1 °F /  19.5 °C 29.9 in /  1012.8 hPa SE 7.1 mph /  11.4 km/h 7.1 mph /  11.4 km/h 54 % 0 in /  0.0 mm
16:32 86.2 °F /  30.1 °C 67.6 °F /  19.8 °C 29.9 in /  1012.8 hPa ESE 8.1 mph /  13.0 km/h 8.1 mph /  13.0 km/h 54 % 0 in /  0.0 mm
16:37 85.8 °F /  29.9 °C 67.3 °F /  19.6 °C 29.9 in /  1012.8 hPa ESE 8.1 mph /  13.0 km/h 8.1 mph /  13.0 km/h 54 % 0 in /  0.0 mm
16:42 86 °F /  30.0 °C 68 °F /  20.0 °C 29.9 in /  1013.8 hPa East 9.2 mph /  14.8 km/h 9.2 mph /  14.8 km/h 55 % 0 in /  0.0 mm
16:47 86 °F /  30.0 °C 68 °F /  20.0 °C 29.9 in /  1013.8 hPa SSE 10.4 mph /  16.7 km/h 10.4 mph /  16.7 km/h 55 % 0 in /  0.0 mm
16:52 86 °F /  30.0 °C 68.5 °F /  20.3 °C 29.9 in /  1013.8 hPa East 10.4 mph /  16.7 km/h 10.4 mph /  16.7 km/h 56 % 0 in /  0.0 mm
16:57 86.7 °F /  30.4 °C 68.5 °F /  20.3 °C 29.9 in /  1013.8 hPa ESE 6.9 mph /  11.1 km/h 6.9 mph /  11.1 km/h 55 % 0 in /  0.0 mm
17:02 87.4 °F /  30.8 °C 69.3 °F /  20.7 °C 29.9 in /  1013.8 hPa SW 3.5 mph /  5.6 km/h 3.5 mph /  5.6 km/h 55 % 0 in /  0.0 mm
17:07 87.8 °F /  31.0 °C 69.6 °F /  20.9 °C 29.9 in /  1013.8 hPa WSW 5.8 mph /  9.3 km/h 5.8 mph /  9.3 km/h 55 % 0 in /  0.0 mm
17:12 87.3 °F /  30.7 °C 69.6 °F /  20.9 °C 29.9 in /  1013.8 hPa SW 6.2 mph /  10.0 km/h 6.2 mph /  10.0 km/h 56 % 0 in /  0.0 mm
17:17 86.5 °F /  30.3 °C 69.1 °F /  20.6 °C 29.9 in /  1013.8 hPa SW 6.4 mph /  10.3 km/h 6.4 mph /  10.3 km/h 56 % 0 in /  0.0 mm
17:22 86 °F /  30.0 °C 69.1 °F /  20.6 °C 29.9 in /  1013.8 hPa South 5.9 mph /  9.5 km/h 5.9 mph /  9.5 km/h 57 % 0 in /  0.0 mm
17:27 86 °F /  30.0 °C 69.1 °F /  20.6 °C 29.9 in /  1013.8 hPa SW 6.9 mph /  11.1 km/h 6.9 mph /  11.1 km/h 57 % 0 in /  0.0 mm
17:32 86.5 °F /  30.3 °C 69.4 °F /  20.8 °C 29.9 in /  1013.8 hPa SSW 6.9 mph /  11.1 km/h 6.9 mph /  11.1 km/h 57 % 0 in /  0.0 mm
17:37 85.6 °F /  29.8 °C 68.7 °F /  20.4 °C 29.9 in /  1013.8 hPa SW 13.8 mph /  22.2 km/h 13.8 mph /  22.2 km/h 57 % 0 in /  0.0 mm
17:38 85.6 °F /  29.8 °C 68.7 °F /  20.4 °C 29.9 in /  1013.8 hPa SW 9.2 mph /  14.8 km/h 9.2 mph /  14.8 km/h 57 % 0 in /  0.0 mm
17:43 85.1 °F /  29.5 °C 68.7 °F /  20.4 °C 29.9 in /  1013.8 hPa SW 7.8 mph /  12.6 km/h 7.8 mph /  12.6 km/h 58 % 0 in /  0.0 mm
17:48 84.9 °F /  29.4 °C 68.5 °F /  20.3 °C 29.9 in /  1013.8 hPa SW 9.2 mph /  14.8 km/h 9.2 mph /  14.8 km/h 58 % 0 in /  0.0 mm
17:53 85.3 °F /  29.6 °C 68.7 °F /  20.4 °C 29.9 in /  1013.8 hPa SW 10.7 mph /  17.2 km/h 10.7 mph /  17.2 km/h 58 % 0 in /  0.0 mm
17:58 84.9 °F /  29.4 °C 68.5 °F /  20.3 °C 29.9 in /  1013.8 hPa SW 8.1 mph /  13.0 km/h 8.1 mph /  13.0 km/h 58 % 0 in /  0.0 mm
18:03 84.2 °F /  29.0 °C 67.8 °F /  19.9 °C 29.9 in /  1013.8 hPa SW 9.2 mph /  14.8 km/h 9.2 mph /  14.8 km/h 58 % 0 in /  0.0 mm
18:08 84 °F /  28.9 °C 68.5 °F /  20.3 °C 29.9 in /  1013.8 hPa SSW 8.1 mph /  13.0 km/h 8.1 mph /  13.0 km/h 60 % 0 in /  0.0 mm
18:13 84.4 °F /  29.1 °C 68.5 °F /  20.3 °C 29.9 in /  1013.8 hPa SW 9.2 mph /  14.8 km/h 9.2 mph /  14.8 km/h 59 % 0 in /  0.0 mm
18:18 83.8 °F /  28.8 °C 68.5 °F /  20.3 °C 29.9 in /  1013.8 hPa West 12.7 mph /  20.4 km/h 12.7 mph /  20.4 km/h 60 % 0 in /  0.0 mm
18:23 83.5 °F /  28.6 °C 68.5 °F /  20.3 °C 29.9 in /  1013.8 hPa SW 5.8 mph /  9.3 km/h 5.8 mph /  9.3 km/h 61 % 0 in /  0.0 mm
18:28 83.3 °F /  28.5 °C 68.4 °F /  20.2 °C 29.9 in /  1012.8 hPa SW 5.8 mph /  9.3 km/h 5.8 mph /  9.3 km/h 61 % 0 in /  0.0 mm
18:33 82.4 °F /  28.0 °C 67.6 °F /  19.8 °C 29.9 in /  1012.8 hPa WSW 10.4 mph /  16.7 km/h 10.4 mph /  16.7 km/h 61 % 0 in /  0.0 mm
18:38 81.7 °F /  27.6 °C 67.5 °F /  19.7 °C 29.9 in /  1012.8 hPa SW 11.5 mph /  18.5 km/h 11.5 mph /  18.5 km/h 62 % 0 in /  0.0 mm
18:43 81.3 °F /  27.4 °C 67.5 °F /  19.7 °C 29.9 in /  1013.8 hPa West 10.4 mph /  16.7 km/h 10.4 mph /  16.7 km/h 63 % 0 in /  0.0 mm
18:48 80.6 °F /  27.0 °C 66.7 °F /  19.3 °C 29.9 in /  1013.8 hPa SW 8.1 mph /  13.0 km/h 8.1 mph /  13.0 km/h 63 % 0 in /  0.0 mm
18:53 80.2 °F /  26.8 °C 66.9 °F /  19.4 °C 29.9 in /  1013.8 hPa SW 8.1 mph /  13.0 km/h 8.1 mph /  13.0 km/h 64 % 0 in /  0.0 mm
18:58 80.1 °F /  26.7 °C 67.3 °F /  19.6 °C 29.9 in /  1013.8 hPa West 5.8 mph /  9.3 km/h 5.8 mph /  9.3 km/h 65 % 0 in /  0.0 mm
19:03 80.1 °F /  26.7 °C 67.3 °F /  19.6 °C 29.9 in /  1013.8 hPa WSW 5.8 mph /  9.3 km/h 5.8 mph /  9.3 km/h 65 % 0 in /  0.0 mm
19:08 79.7 °F /  26.5 °C 67.3 °F /  19.6 °C 29.9 in /  1013.8 hPa SW 10.4 mph /  16.7 km/h 10.4 mph /  16.7 km/h 66 % 0 in /  0.0 mm
19:13 79.5 °F /  26.4 °C 67.3 °F /  19.6 °C 29.9 in /  1013.8 hPa SSW 10.4 mph /  16.7 km/h 10.4 mph /  16.7 km/h 66 % 0 in /  0.0 mm
19:18 79.3 °F /  26.3 °C 66.9 °F /  19.4 °C 29.9 in /  1013.8 hPa SSW 5.8 mph /  9.3 km/h 5.8 mph /  9.3 km/h 66 % 0 in /  0.0 mm
19:23 79.3 °F /  26.3 °C 66.9 °F /  19.4 °C 29.9 in /  1013.8 hPa SSW 6.9 mph /  11.1 km/h 6.9 mph /  11.1 km/h 66 % 0 in /  0.0 mm
19:28 79.2 °F /  26.2 °C 66.7 °F /  19.3 °C 29.9 in /  1012.8 hPa SW 9.8 mph /  15.8 km/h 9.8 mph /  15.8 km/h 66 % 0 in /  0.0 mm
19:33 79 °F /  26.1 °C 67.1 °F /  19.5 °C 29.9 in /  1012.8 hPa SW 3.5 mph /  5.6 km/h 3.5 mph /  5.6 km/h 67 % 0 in /  0.0 mm
19:38 79 °F /  26.1 °C 67.1 °F /  19.5 °C 29.9 in /  1012.8 hPa WSW 3.5 mph /  5.6 km/h 3.5 mph /  5.6 km/h 67 % 0 in /  0.0 mm
19:43 79 °F /  26.1 °C 67.1 °F /  19.5 °C 29.9 in /  1013.8 hPa SW 3.5 mph /  5.6 km/h 3.5 mph /  5.6 km/h 67 % 0 in /  0.0 mm
19:48 79 °F /  26.1 °C 67.1 °F /  19.5 °C 29.9 in /  1013.8 hPa WSW 3.5 mph /  5.6 km/h 3.5 mph /  5.6 km/h 67 % 0 in /  0.0 mm
19:50 78.8 °F /  26.0 °C 66.9 °F /  19.4 °C 29.9 in /  1013.8 hPa South 4.6 mph /  7.4 km/h 4.6 mph /  7.4 km/h 67 % 0 in /  0.0 mm
19:55 79 °F /  26.1 °C 67.1 °F /  19.5 °C 29.9 in /  1013.8 hPa SSW 3.5 mph /  5.6 km/h 3.5 mph /  5.6 km/h 67 % 0 in /  0.0 mm
20:00 79 °F /  26.1 °C 67.1 °F /  19.5 °C 29.9 in /  1013.8 hPa WSW 2.3 mph /  3.7 km/h 2.3 mph /  3.7 km/h 67 % 0 in /  0.0 mm
20:05 79 °F /  26.1 °C 67.1 °F /  19.5 °C 29.9 in /  1013.8 hPa ESE 1.2 mph /  1.9 km/h   67 % 0 in /  0.0 mm
20:10 79 °F /  26.1 °C 67.1 °F /  19.5 °C 29.9 in /  1013.8 hPa West 2.3 mph /  3.7 km/h 2.3 mph /  3.7 km/h 67 % 0 in /  0.0 mm
20:15 79 °F /  26.1 °C 67.1 °F /  19.5 °C 29.9 in /  1013.8 hPa West 1.2 mph /  1.9 km/h   67 % 0 in /  0.0 mm
20:16 79 °F /  26.1 °C 67.1 °F /  19.5 °C 29.9 in /  1013.8 hPa West 1.2 mph /  1.9 km/h   67 % 0 in /  0.0 mm
20:21 79 °F /  26.1 °C 67.1 °F /  19.5 °C 29.9 in /  1013.8 hPa NNE 1.6 mph /  2.6 km/h 1.6 mph /  2.6 km/h 67 % 0 in /  0.0 mm
20:26 79 °F /  26.1 °C 67.1 °F /  19.5 °C 30 in /  1014.8 hPa SW 2.3 mph /  3.7 km/h 2.3 mph /  3.7 km/h 67 % 0 in /  0.0 mm
20:31 78.6 °F /  25.9 °C 66.7 °F /  19.3 °C 30 in /  1014.8 hPa West 3.5 mph /  5.6 km/h 3.5 mph /  5.6 km/h 67 % 0 in /  0.0 mm
20:36 78.4 °F /  25.8 °C 66.6 °F /  19.2 °C 30 in /  1014.8 hPa WNW 4.6 mph /  7.4 km/h 4.6 mph /  7.4 km/h 67 % 0 in /  0.0 mm
20:41 78.6 °F /  25.9 °C 66.7 °F /  19.3 °C 29.9 in /  1012.8 hPa South 3.5 mph /  5.6 km/h 3.5 mph /  5.6 km/h 67 % 0 in /  0.0 mm
20:46 79.2 °F /  26.2 °C 66.7 °F /  19.3 °C 29.9 in /  1012.8 hPa West 3.5 mph /  5.6 km/h 3.5 mph /  5.6 km/h 66 % 0 in /  0.0 mm
20:51 79.5 °F /  26.4 °C 66.7 °F /  19.3 °C 29.9 in /  1012.8 hPa SSW 2.3 mph /  3.7 km/h   65 % 0 in /  0.0 mm
20:56 79.5 °F /  26.4 °C 66.7 °F /  19.3 °C 29.9 in /  1013.8 hPa Calm     65 % 0 in /  0.0 mm
21:01 79.9 °F /  26.6 °C 66.6 °F /  19.2 °C 29.9 in /  1013.8 hPa SE 1.6 mph /  2.6 km/h 1.6 mph /  2.6 km/h 64 % 0 in /  0.0 mm
21:06 79.7 °F /  26.5 °C 66.4 °F /  19.1 °C 29.9 in /  1013.8 hPa SW 2 mph /  3.2 km/h   64 % 0 in /  0.0 mm
21:11 79.3 °F /  26.3 °C 66.6 °F /  19.2 °C 29.9 in /  1013.8 hPa WSW 2.3 mph /  3.7 km/h 2.3 mph /  3.7 km/h 65 % 0 in /  0.0 mm
21:16 79 °F /  26.1 °C 66.2 °F /  19.0 °C 29.9 in /  1013.8 hPa WSW 0.9 mph /  1.4 km/h   65 % 0 in /  0.0 mm
21:21 78.6 °F /  25.9 °C 65.8 °F /  18.8 °C 29.9 in /  1013.8 hPa SSW 3.5 mph /  5.6 km/h 3.5 mph /  5.6 km/h 65 % 0 in /  0.0 mm
21:26 78.1 °F /  25.6 °C 65.8 °F /  18.8 °C 29.9 in /  1013.8 hPa WSW 2.3 mph /  3.7 km/h 2.3 mph /  3.7 km/h 66 % 0 in /  0.0 mm
21:31 77.9 °F /  25.5 °C 66 °F /  18.9 °C 29.9 in /  1013.8 hPa WSW 2.3 mph /  3.7 km/h 2.3 mph /  3.7 km/h 67 % 0 in /  0.0 mm
21:36 77.5 °F /  25.3 °C 65.7 °F /  18.7 °C 29.9 in /  1013.8 hPa SSE 2.3 mph /  3.7 km/h 2.3 mph /  3.7 km/h 67 % 0 in /  0.0 mm
21:41 77.4 °F /  25.2 °C 66 °F /  18.9 °C 29.9 in /  1013.8 hPa West 2.3 mph /  3.7 km/h 2.3 mph /  3.7 km/h 68 % 0 in /  0.0 mm
21:46 77.2 °F /  25.1 °C 65.5 °F /  18.6 °C 29.9 in /  1013.8 hPa WSW 1.6 mph /  2.6 km/h 1.6 mph /  2.6 km/h 67 % 0 in /  0.0 mm
21:51 77.2 °F /  25.1 °C 65.8 °F /  18.8 °C 29.9 in /  1013.8 hPa SSW 2 mph /  3.2 km/h   68 % 0 in /  0.0 mm
21:56 77.4 °F /  25.2 °C 65.5 °F /  18.6 °C 29.9 in /  1013.8 hPa West 1.4 mph /  2.3 km/h   67 % 0 in /  0.0 mm
22:01 77.5 °F /  25.3 °C 65.3 °F /  18.5 °C 29.9 in /  1013.8 hPa WSW 2.4 mph /  3.9 km/h 2.4 mph /  3.9 km/h 66 % 0 in /  0.0 mm
22:06 77.5 °F /  25.3 °C 64.8 °F /  18.2 °C 29.9 in /  1013.8 hPa West 2.3 mph /  3.7 km/h 2.3 mph /  3.7 km/h 65 % 0 in /  0.0 mm
22:11 77.7 °F /  25.4 °C 64.9 °F /  18.3 °C 29.9 in /  1013.8 hPa SW 2.3 mph /  3.7 km/h 2.3 mph /  3.7 km/h 65 % 0 in /  0.0 mm
22:16 77.5 °F /  25.3 °C 65.3 °F /  18.5 °C 29.9 in /  1013.8 hPa SW 1.2 mph /  1.9 km/h   66 % 0 in /  0.0 mm
22:21 77.2 °F /  25.1 °C 64.6 °F /  18.1 °C 29.9 in /  1013.8 hPa SW 2.3 mph /  3.7 km/h 2.3 mph /  3.7 km/h 65 % 0 in /  0.0 mm
22:26 77.2 °F /  25.1 °C 64 °F /  17.8 °C 29.9 in /  1013.8 hPa SW 2.3 mph /  3.7 km/h 2.3 mph /  3.7 km/h 64 % 0 in /  0.0 mm
22:31 77 °F /  25.0 °C 63.9 °F /  17.7 °C 29.9 in /  1013.8 hPa SW 1.2 mph /  1.9 km/h 1.2 mph /  1.9 km/h 64 % 0 in /  0.0 mm
22:36 77 °F /  25.0 °C 63.9 °F /  17.7 °C 29.9 in /  1013.8 hPa SW 2.3 mph /  3.7 km/h 2.3 mph /  3.7 km/h 64 % 0 in /  0.0 mm
22:41 76.8 °F /  24.9 °C 63.7 °F /  17.6 °C 29.9 in /  1013.8 hPa WSW 2.3 mph /  3.7 km/h 2.4 mph /  3.9 km/h 64 % 0 in /  0.0 mm
22:46 76.8 °F /  24.9 °C 63.3 °F /  17.4 °C 29.9 in /  1013.8 hPa WSW 1.4 mph /  2.3 km/h 2 mph /  3.2 km/h 63 % 0 in /  0.0 mm
22:51 76.6 °F /  24.8 °C 63.1 °F /  17.3 °C 29.9 in /  1013.8 hPa SW 3.5 mph /  5.6 km/h 3.5 mph /  5.6 km/h 63 % 0 in /  0.0 mm
22:56 76.6 °F /  24.8 °C 63.1 °F /  17.3 °C 29.9 in /  1013.8 hPa West 2.3 mph /  3.7 km/h 2.3 mph /  3.7 km/h 63 % 0 in /  0.0 mm
23:01 76.5 °F /  24.7 °C 62.4 °F /  16.9 °C 29.9 in /  1013.8 hPa SW 1.2 mph /  1.9 km/h 1.2 mph /  1.9 km/h 62 % 0 in /  0.0 mm
23:06 76.5 °F /  24.7 °C 62.4 °F /  16.9 °C 29.9 in /  1013.8 hPa WSW 2 mph /  3.2 km/h 2 mph /  3.2 km/h 62 % 0 in /  0.0 mm
23:11 76.5 °F /  24.7 °C 62.4 °F /  16.9 °C 29.9 in /  1013.8 hPa WSW 2.4 mph /  3.9 km/h 2.4 mph /  3.9 km/h 62 % 0 in /  0.0 mm
23:16 76.6 °F /  24.8 °C 62.6 °F /  17.0 °C 29.9 in /  1013.8 hPa WSW 2.4 mph /  3.9 km/h 2.4 mph /  3.9 km/h 62 % 0 in /  0.0 mm
23:21 76.8 °F /  24.9 °C 62.2 °F /  16.8 °C 29.9 in /  1013.8 hPa WSW 4.6 mph /  7.4 km/h 4.6 mph /  7.4 km/h 61 % 0 in /  0.0 mm
23:26 76.8 °F /  24.9 °C 62.2 °F /  16.8 °C 29.9 in /  1013.8 hPa West 3.5 mph /  5.6 km/h 3.5 mph /  5.6 km/h 61 % 0 in /  0.0 mm
23:31 76.6 °F /  24.8 °C 62.2 °F /  16.8 °C 29.9 in /  1013.8 hPa SW 2.4 mph /  3.9 km/h 2.4 mph /  3.9 km/h 61 % 0 in /  0.0 mm
23:36 76.5 °F /  24.7 °C 62.4 °F /  16.9 °C 29.9 in /  1013.8 hPa WSW 4.6 mph /  7.4 km/h 4.6 mph /  7.4 km/h 62 % 0 in /  0.0 mm
23:41 76.3 °F /  24.6 °C 62.8 °F /  17.1 °C 29.9 in /  1013.8 hPa WSW 4.6 mph /  7.4 km/h 4.6 mph /  7.4 km/h 63 % 0 in /  0.0 mm
23:46 76.1 °F /  24.5 °C 63 °F /  17.2 °C 29.9 in /  1013.8 hPa SSW 4.6 mph /  7.4 km/h 4.6 mph /  7.4 km/h 64 % 0 in /  0.0 mm
23:51 75.9 °F /  24.4 °C 63.3 °F /  17.4 °C 29.9 in /  1013.8 hPa SW 3.1 mph /  5.0 km/h 3.1 mph /  5.0 km/h 65 % 0 in /  0.0 mm
23:56 75.6 °F /  24.2 °C 63 °F /  17.2 °C 29.9 in /  1013.8 hPa South 3.5 mph /  5.6 km/h 3.5 mph /  5.6 km/h 65 % 0 in /  0.0 mm
Meteo Sesrovires
Elogis d' Weather Underground - 3.5 mb

Guio original per  Jim McMurry - jmcmurry@mwt.net Adaptat per a la plantilla per  Wim van der Kuil - Leuven-Template.eu

Trobareu la nostra informacio del temps tambe a:

Weather Underground

AWEKAS